Forbes, Australia
Current Conditions -  °F | °C
As of 3:30 PM on Monday 20 Oct 2014 (Local Time) from YSDU Reporting Station
Clear Clear  
Wind Chill: 90°   Ceiling: Unl
Heat Index: 90°   Visibility: 6mi
Dew Point: 37°   Wind: 9mph
Humidity: 16%   Direction: 110°ESE
Pressure: 30.15"   Gusts: NA
Location:  33.39°S, 148.01°E
Report Text: YSDU 200430Z AUTO 11008KT 100V180 9999 // NCD 32/03 Q1021
Loading
Personal Weather Stations






























Interactive Weather Map
Tropical Storm Tracking
New forecast layout! Learn more

10-Day Weather Forecast

Advertisements
Track Severe Weather on mobile